sensor_id;sensor_type;location;lat;lon;timestamp;P1;durP1;ratioP1;P2;durP2;ratioP2
18473;SDS011;30265;52.408;13.500;2023-07-20T00:02:49;8.88;;;6.53;;
18473;SDS011;30265;52.408;13.500;2023-07-20T00:13:11;12.75;;;7.10;;
18473;SDS011;30265;52.408;13.500;2023-07-20T00:23:35;7.30;;;6.13;;
18473;SDS011;30265;52.408;13.500;2023-07-20T00:33:57;7.95;;;6.85;;
18473;SDS011;30265;52.408;13.500;2023-07-20T00:44:20;10.48;;;7.05;;
18473;SDS011;30265;52.408;13.500;2023-07-20T00:54:42;12.82;;;7.97;;
18473;SDS011;30265;52.408;13.500;2023-07-20T01:05:09;8.85;;;6.68;;
18473;SDS011;30265;52.408;13.500;2023-07-20T01:15:33;12.88;;;7.63;;
18473;SDS011;30265;52.408;13.500;2023-07-20T01:26:05;15.50;;;8.30;;
18473;SDS011;30265;52.408;13.500;2023-07-20T01:36:35;14.13;;;8.57;;
18473;SDS011;30265;52.408;13.500;2023-07-20T01:46:59;14.82;;;8.70;;
18473;SDS011;30265;52.408;13.500;2023-07-20T01:57:22;19.10;;;10.43;;
18473;SDS011;30265;52.408;13.500;2023-07-20T02:07:45;17.45;;;10.40;;
18473;SDS011;30265;52.408;13.500;2023-07-20T02:28:33;16.05;;;9.77;;
18473;SDS011;30265;52.408;13.500;2023-07-20T02:38:56;13.82;;;9.30;;
18473;SDS011;30265;52.408;13.500;2023-07-20T02:49:18;15.00;;;9.50;;
18473;SDS011;30265;52.408;13.500;2023-07-20T02:59:42;15.88;;;9.68;;
18473;SDS011;30265;52.408;13.500;2023-07-20T03:10:04;18.75;;;11.50;;
18473;SDS011;30265;52.408;13.500;2023-07-20T03:20:30;26.30;;;14.00;;
18473;SDS011;30265;52.408;13.500;2023-07-20T03:30:55;18.70;;;13.07;;
18473;SDS011;30265;52.408;13.500;2023-07-20T03:41:21;24.27;;;14.03;;
18473;SDS011;30265;52.408;13.500;2023-07-20T03:51:44;24.35;;;14.88;;
18473;SDS011;30265;52.408;13.500;2023-07-20T04:02:13;23.63;;;14.00;;
18473;SDS011;30265;52.408;13.500;2023-07-20T04:12:37;24.13;;;13.15;;
18473;SDS011;30265;52.408;13.500;2023-07-20T04:23:02;23.73;;;14.15;;
18473;SDS011;30265;52.408;13.500;2023-07-20T04:33:25;20.33;;;13.17;;
18473;SDS011;30265;52.408;13.500;2023-07-20T04:43:51;18.20;;;12.40;;
18473;SDS011;30265;52.408;13.500;2023-07-20T04:54:24;18.10;;;11.80;;
18473;SDS011;30265;52.408;13.500;2023-07-20T05:04:49;16.73;;;11.20;;
18473;SDS011;30265;52.408;13.500;2023-07-20T05:15:11;16.50;;;11.45;;
18473;SDS011;30265;52.408;13.500;2023-07-20T05:25:36;17.13;;;11.20;;
18473;SDS011;30265;52.408;13.500;2023-07-20T05:35:58;13.75;;;9.57;;
18473;SDS011;30265;52.408;13.500;2023-07-20T05:46:24;13.17;;;9.03;;
18473;SDS011;30265;52.408;13.500;2023-07-20T05:56:52;16.23;;;9.20;;
18473;SDS011;30265;52.408;13.500;2023-07-20T06:07:15;10.10;;;8.27;;
18473;SDS011;30265;52.408;13.500;2023-07-20T06:17:38;11.95;;;8.40;;
18473;SDS011;30265;52.408;13.500;2023-07-20T06:28:01;11.57;;;7.15;;
18473;SDS011;30265;52.408;13.500;2023-07-20T06:38:25;7.80;;;5.63;;
18473;SDS011;30265;52.408;13.500;2023-07-20T06:48:51;8.53;;;6.37;;
18473;SDS011;30265;52.408;13.500;2023-07-20T06:59:22;6.32;;;4.75;;
18473;SDS011;30265;52.408;13.500;2023-07-20T07:09:49;7.93;;;5.40;;
18473;SDS011;30265;52.408;13.500;2023-07-20T07:20:11;5.20;;;4.17;;
18473;SDS011;30265;52.408;13.500;2023-07-20T07:30:42;5.70;;;2.60;;
18473;SDS011;30265;52.408;13.500;2023-07-20T07:41:03;4.95;;;2.70;;
18473;SDS011;30265;52.408;13.500;2023-07-20T07:51:26;4.57;;;1.90;;
18473;SDS011;30265;52.408;13.500;2023-07-20T08:01:47;4.47;;;1.85;;
18473;SDS011;30265;52.408;13.500;2023-07-20T08:12:10;1.65;;;1.40;;
18473;SDS011;30265;52.408;13.500;2023-07-20T08:22:33;1.80;;;1.40;;
18473;SDS011;30265;52.408;13.500;2023-07-20T08:32:56;2.78;;;1.55;;
18473;SDS011;30265;52.408;13.500;2023-07-20T08:43:18;2.33;;;1.50;;
18473;SDS011;30265;52.408;13.500;2023-07-20T08:53:41;7.70;;;1.50;;
18473;SDS011;30265;52.408;13.500;2023-07-20T09:04:03;1.90;;;1.40;;
18473;SDS011;30265;52.408;13.500;2023-07-20T09:14:27;2.35;;;1.50;;
18473;SDS011;30265;52.408;13.500;2023-07-20T09:24:52;2.33;;;1.30;;
18473;SDS011;30265;52.408;13.500;2023-07-20T09:35:16;1.38;;;1.20;;
18473;SDS011;30265;52.408;13.500;2023-07-20T09:45:42;1.55;;;1.05;;
18473;SDS011;30265;52.408;13.500;2023-07-20T09:56:16;1.57;;;1.20;;
18473;SDS011;30265;52.408;13.500;2023-07-20T10:06:42;1.55;;;1.13;;
18473;SDS011;30265;52.408;13.500;2023-07-20T10:29:25;2.00;;;1.40;;
18473;SDS011;30265;52.408;13.500;2023-07-20T10:39:55;3.00;;;1.40;;
18473;SDS011;30265;52.408;13.500;2023-07-20T10:51:13;3.47;;;1.50;;
18473;SDS011;30265;52.408;13.500;2023-07-20T11:01:36;4.85;;;1.50;;
18473;SDS011;30265;52.408;13.500;2023-07-20T11:22:48;3.15;;;1.30;;
18473;SDS011;30265;52.408;13.500;2023-07-20T11:33:13;2.40;;;1.50;;
18473;SDS011;30265;52.408;13.500;2023-07-20T11:43:35;2.40;;;1.30;;
18473;SDS011;30265;52.408;13.500;2023-07-20T11:53:58;1.52;;;1.20;;
18473;SDS011;30265;52.408;13.500;2023-07-20T12:04:22;4.15;;;1.40;;
18473;SDS011;30265;52.408;13.500;2023-07-20T12:14:45;1.70;;;1.20;;
18473;SDS011;30265;52.408;13.500;2023-07-20T12:25:08;1.33;;;1.17;;
18473;SDS011;30265;52.408;13.500;2023-07-20T12:35:31;1.23;;;1.10;;
18473;SDS011;30265;52.408;13.500;2023-07-20T12:45:53;1.50;;;0.93;;
18473;SDS011;30265;52.408;13.500;2023-07-20T12:56:16;1.55;;;1.00;;
18473;SDS011;30265;52.408;13.500;2023-07-20T13:06:41;1.20;;;1.00;;
18473;SDS011;30265;52.408;13.500;2023-07-20T13:17:04;1.17;;;0.80;;
18473;SDS011;30265;52.408;13.500;2023-07-20T13:27:28;4.88;;;1.00;;
18473;SDS011;30265;52.408;13.500;2023-07-20T13:37:53;1.67;;;1.13;;
18473;SDS011;30265;52.408;13.500;2023-07-20T13:48:15;2.53;;;0.93;;
18473;SDS011;30265;52.408;13.500;2023-07-20T13:58:45;1.38;;;0.90;;
18473;SDS011;30265;52.408;13.500;2023-07-20T14:09:10;3.67;;;1.10;;
18473;SDS011;30265;52.408;13.500;2023-07-20T14:19:38;2.05;;;1.00;;
18473;SDS011;30265;52.408;13.500;2023-07-20T14:30:03;1.23;;;1.02;;
18473;SDS011;30265;52.408;13.500;2023-07-20T14:40:31;2.22;;;1.10;;
18473;SDS011;30265;52.408;13.500;2023-07-20T14:51:04;1.90;;;1.10;;
18473;SDS011;30265;52.408;13.500;2023-07-20T15:01:28;3.03;;;1.15;;
18473;SDS011;30265;52.408;13.500;2023-07-20T15:11:50;1.20;;;0.90;;
18473;SDS011;30265;52.408;13.500;2023-07-20T15:22:13;2.10;;;1.10;;
18473;SDS011;30265;52.408;13.500;2023-07-20T15:32:36;5.53;;;1.30;;
18473;SDS011;30265;52.408;13.500;2023-07-20T15:43:02;3.72;;;1.48;;
18473;SDS011;30265;52.408;13.500;2023-07-20T15:53:40;1.15;;;1.02;;
18473;SDS011;30265;52.408;13.500;2023-07-20T16:04:04;2.63;;;1.10;;
18473;SDS011;30265;52.408;13.500;2023-07-20T16:14:25;1.60;;;1.10;;
18473;SDS011;30265;52.408;13.500;2023-07-20T16:24:48;2.10;;;1.20;;
18473;SDS011;30265;52.408;13.500;2023-07-20T16:35:10;2.20;;;1.25;;
18473;SDS011;30265;52.408;13.500;2023-07-20T16:45:33;1.48;;;1.20;;
18473;SDS011;30265;52.408;13.500;2023-07-20T16:55:55;2.00;;;1.17;;
18473;SDS011;30265;52.408;13.500;2023-07-20T17:06:19;1.95;;;1.30;;
18473;SDS011;30265;52.408;13.500;2023-07-20T17:27:04;1.85;;;1.30;;
18473;SDS011;30265;52.408;13.500;2023-07-20T17:37:29;3.67;;;1.58;;
18473;SDS011;30265;52.408;13.500;2023-07-20T17:48:12;6.22;;;1.50;;
18473;SDS011;30265;52.408;13.500;2023-07-20T17:58:34;3.15;;;1.30;;
18473;SDS011;30265;52.408;13.500;2023-07-20T18:08:57;3.97;;;1.30;;
18473;SDS011;30265;52.408;13.500;2023-07-20T18:19:19;5.35;;;1.58;;
18473;SDS011;30265;52.408;13.500;2023-07-20T18:29:42;3.35;;;1.40;;
18473;SDS011;30265;52.408;13.500;2023-07-20T18:40:05;3.47;;;1.30;;
18473;SDS011;30265;52.408;13.500;2023-07-20T18:50:29;4.05;;;1.38;;
18473;SDS011;30265;52.408;13.500;2023-07-20T19:00:57;1.93;;;1.40;;
18473;SDS011;30265;52.408;13.500;2023-07-20T19:11:21;2.05;;;1.40;;
18473;SDS011;30265;52.408;13.500;2023-07-20T19:21:46;4.18;;;1.40;;
18473;SDS011;30265;52.408;13.500;2023-07-20T19:32:09;5.15;;;1.45;;
18473;SDS011;30265;52.408;13.500;2023-07-20T19:42:31;6.53;;;1.90;;
18473;SDS011;30265;52.408;13.500;2023-07-20T19:52:54;3.30;;;1.55;;
18473;SDS011;30265;52.408;13.500;2023-07-20T20:03:19;4.07;;;1.70;;
18473;SDS011;30265;52.408;13.500;2023-07-20T20:24:07;4.82;;;1.70;;
18473;SDS011;30265;52.408;13.500;2023-07-20T20:34:31;3.05;;;1.50;;
18473;SDS011;30265;52.408;13.500;2023-07-20T20:44:52;4.45;;;1.77;;
18473;SDS011;30265;52.408;13.500;2023-07-20T20:55:16;3.13;;;1.90;;
18473;SDS011;30265;52.408;13.500;2023-07-20T21:05:38;3.75;;;1.70;;
18473;SDS011;30265;52.408;13.500;2023-07-20T21:16:02;5.93;;;1.95;;
18473;SDS011;30265;52.408;13.500;2023-07-20T21:26:24;6.68;;;2.15;;
18473;SDS011;30265;52.408;13.500;2023-07-20T21:36:47;5.00;;;2.00;;
